sensor_id;sensor_type;location;lat;lon;timestamp;temperature;humidity
16289;DHT22;26089;43.538;5.250;2022-12-28T00:00:13;6.80;99.90
16289;DHT22;26089;43.538;5.250;2022-12-28T00:02:40;6.90;99.90
16289;DHT22;26089;43.538;5.250;2022-12-28T00:05:08;6.90;99.90
16289;DHT22;26089;43.538;5.250;2022-12-28T00:07:35;6.90;99.90
16289;DHT22;26089;43.538;5.250;2022-12-28T00:10:03;6.90;99.90
16289;DHT22;26089;43.538;5.250;2022-12-28T00:12:30;6.80;99.90
16289;DHT22;26089;43.538;5.250;2022-12-28T00:14:59;6.70;99.90
16289;DHT22;26089;43.538;5.250;2022-12-28T00:17:26;7.20;99.90
16289;DHT22;26089;43.538;5.250;2022-12-28T00:19:53;6.60;99.90
16289;DHT22;26089;43.538;5.250;2022-12-28T00:22:20;6.60;99.90
16289;DHT22;26089;43.538;5.250;2022-12-28T00:24:47;6.50;99.90
16289;DHT22;26089;43.538;5.250;2022-12-28T00:27:14;6.50;99.90
16289;DHT22;26089;43.538;5.250;2022-12-28T00:29:41;7.20;99.90
16289;DHT22;26089;43.538;5.250;2022-12-28T00:32:09;6.50;99.90
16289;DHT22;26089;43.538;5.250;2022-12-28T00:34:36;6.60;99.90
16289;DHT22;26089;43.538;5.250;2022-12-28T00:37:03;6.60;99.90
16289;DHT22;26089;43.538;5.250;2022-12-28T00:39:30;6.60;99.90
16289;DHT22;26089;43.538;5.250;2022-12-28T00:41:57;7.00;99.90
16289;DHT22;26089;43.538;5.250;2022-12-28T00:44:24;6.70;99.90
16289;DHT22;26089;43.538;5.250;2022-12-28T00:46:51;6.70;99.90
16289;DHT22;26089;43.538;5.250;2022-12-28T00:49:19;6.70;99.90
16289;DHT22;26089;43.538;5.250;2022-12-28T00:51:47;6.70;99.90
16289;DHT22;26089;43.538;5.250;2022-12-28T00:54:14;6.70;99.90
16289;DHT22;26089;43.538;5.250;2022-12-28T00:56:41;6.70;99.90
16289;DHT22;26089;43.538;5.250;2022-12-28T00:59:08;8.00;99.90
16289;DHT22;26089;43.538;5.250;2022-12-28T01:01:35;6.60;99.90
16289;DHT22;26089;43.538;5.250;2022-12-28T01:04:02;6.60;99.90
16289;DHT22;26089;43.538;5.250;2022-12-28T01:06:31;6.60;99.90
16289;DHT22;26089;43.538;5.250;2022-12-28T01:08:59;6.60;99.90
16289;DHT22;26089;43.538;5.250;2022-12-28T01:11:27;6.50;99.90
16289;DHT22;26089;43.538;5.250;2022-12-28T01:13:56;6.50;99.90
16289;DHT22;26089;43.538;5.250;2022-12-28T01:16:25;6.40;99.90
16289;DHT22;26089;43.538;5.250;2022-12-28T01:18:54;6.30;99.90
16289;DHT22;26089;43.538;5.250;2022-12-28T01:21:23;6.30;99.90
16289;DHT22;26089;43.538;5.250;2022-12-28T01:23:55;6.50;99.90
16289;DHT22;26089;43.538;5.250;2022-12-28T01:26:22;6.60;99.90
16289;DHT22;26089;43.538;5.250;2022-12-28T01:28:50;6.30;99.90
16289;DHT22;26089;43.538;5.250;2022-12-28T01:31:18;6.20;99.90
16289;DHT22;26089;43.538;5.250;2022-12-28T01:33:45;6.10;99.90
16289;DHT22;26089;43.538;5.250;2022-12-28T01:36:14;6.10;99.90
16289;DHT22;26089;43.538;5.250;2022-12-28T01:38:42;6.10;99.90
16289;DHT22;26089;43.538;5.250;2022-12-28T01:41:12;6.10;99.90
16289;DHT22;26089;43.538;5.250;2022-12-28T01:43:41;6.10;99.90
16289;DHT22;26089;43.538;5.250;2022-12-28T01:46:10;6.10;99.90
16289;DHT22;26089;43.538;5.250;2022-12-28T01:48:43;6.20;99.90
16289;DHT22;26089;43.538;5.250;2022-12-28T01:51:11;6.20;99.90
16289;DHT22;26089;43.538;5.250;2022-12-28T01:53:38;6.20;99.90
16289;DHT22;26089;43.538;5.250;2022-12-28T01:56:06;6.20;99.90
16289;DHT22;26089;43.538;5.250;2022-12-28T01:58:35;6.20;99.90
16289;DHT22;26089;43.538;5.250;2022-12-28T02:01:02;6.10;99.90
16289;DHT22;26089;43.538;5.250;2022-12-28T02:03:32;6.10;99.90
16289;DHT22;26089;43.538;5.250;2022-12-28T02:06:03;6.10;99.90
16289;DHT22;26089;43.538;5.250;2022-12-28T02:08:37;6.00;99.90
16289;DHT22;26089;43.538;5.250;2022-12-28T02:11:07;6.00;99.90
16289;DHT22;26089;43.538;5.250;2022-12-28T02:13:38;6.00;99.90
16289;DHT22;26089;43.538;5.250;2022-12-28T02:16:06;6.00;99.90
16289;DHT22;26089;43.538;5.250;2022-12-28T02:18:33;5.90;99.90
16289;DHT22;26089;43.538;5.250;2022-12-28T02:21:17;6.00;99.90
16289;DHT22;26089;43.538;5.250;2022-12-28T02:24:14;5.80;99.90
16289;DHT22;26089;43.538;5.250;2022-12-28T02:26:56;6.00;99.90
16289;DHT22;26089;43.538;5.250;2022-12-28T02:32:28;6.00;99.90
16289;DHT22;26089;43.538;5.250;2022-12-28T02:35:01;6.10;99.90
16289;DHT22;26089;43.538;5.250;2022-12-28T02:37:32;6.00;99.90
16289;DHT22;26089;43.538;5.250;2022-12-28T02:40:02;6.00;99.90
16289;DHT22;26089;43.538;5.250;2022-12-28T02:42:34;5.90;99.90
16289;DHT22;26089;43.538;5.250;2022-12-28T02:45:02;5.90;99.90
16289;DHT22;26089;43.538;5.250;2022-12-28T02:47:49;7.10;99.90
16289;DHT22;26089;43.538;5.250;2022-12-28T02:50:49;6.10;99.90
16289;DHT22;26089;43.538;5.250;2022-12-28T02:53:36;6.10;99.90
16289;DHT22;26089;43.538;5.250;2022-12-28T02:56:15;5.50;99.90
16289;DHT22;26089;43.538;5.250;2022-12-28T02:59:07;6.10;99.90
16289;DHT22;26089;43.538;5.250;2022-12-28T03:01:59;6.20;99.90
16289;DHT22;26089;43.538;5.250;2022-12-28T03:04:36;6.10;99.90
16289;DHT22;26089;43.538;5.250;2022-12-28T03:07:12;5.90;99.90
16289;DHT22;26089;43.538;5.250;2022-12-28T03:10:09;6.00;99.90
16289;DHT22;26089;43.538;5.250;2022-12-28T03:12:41;5.90;99.90
16289;DHT22;26089;43.538;5.250;2022-12-28T03:15:13;5.70;99.90
16289;DHT22;26089;43.538;5.250;2022-12-28T03:17:56;5.90;99.90
16289;DHT22;26089;43.538;5.250;2022-12-28T03:20:45;5.90;99.90
16289;DHT22;26089;43.538;5.250;2022-12-28T03:23:31;5.90;99.90
16289;DHT22;26089;43.538;5.250;2022-12-28T03:26:18;6.10;99.90
16289;DHT22;26089;43.538;5.250;2022-12-28T03:29:07;6.20;99.90
16289;DHT22;26089;43.538;5.250;2022-12-28T03:31:53;5.80;99.90
16289;DHT22;26089;43.538;5.250;2022-12-28T03:34:20;6.00;99.90
16289;DHT22;26089;43.538;5.250;2022-12-28T03:36:53;5.60;99.90
16289;DHT22;26089;43.538;5.250;2022-12-28T03:39:31;7.20;99.90
16289;DHT22;26089;43.538;5.250;2022-12-28T03:42:07;5.80;99.90
16289;DHT22;26089;43.538;5.250;2022-12-28T03:44:59;5.90;99.90
16289;DHT22;26089;43.538;5.250;2022-12-28T03:47:28;5.00;99.90
16289;DHT22;26089;43.538;5.250;2022-12-28T03:49:59;5.80;99.90
16289;DHT22;26089;43.538;5.250;2022-12-28T03:52:27;5.70;99.90
16289;DHT22;26089;43.538;5.250;2022-12-28T03:54:54;5.80;99.90
16289;DHT22;26089;43.538;5.250;2022-12-28T03:57:22;5.70;99.90
16289;DHT22;26089;43.538;5.250;2022-12-28T03:59:49;5.20;99.90
16289;DHT22;26089;43.538;5.250;2022-12-28T04:02:16;5.60;99.90
16289;DHT22;26089;43.538;5.250;2022-12-28T04:04:43;5.60;99.90
16289;DHT22;26089;43.538;5.250;2022-12-28T04:07:10;5.60;99.90
16289;DHT22;26089;43.538;5.250;2022-12-28T04:09:38;5.30;99.90
16289;DHT22;26089;43.538;5.250;2022-12-28T04:12:06;5.60;99.90
16289;DHT22;26089;43.538;5.250;2022-12-28T04:14:33;5.40;99.90
16289;DHT22;26089;43.538;5.250;2022-12-28T04:17:00;5.50;99.90
16289;DHT22;26089;43.538;5.250;2022-12-28T04:19:27;5.60;99.90
16289;DHT22;26089;43.538;5.250;2022-12-28T04:21:54;5.60;99.90
16289;DHT22;26089;43.538;5.250;2022-12-28T04:24:21;5.50;99.90
16289;DHT22;26089;43.538;5.250;2022-12-28T04:26:49;6.20;99.90
16289;DHT22;26089;43.538;5.250;2022-12-28T04:29:16;5.70;99.90
16289;DHT22;26089;43.538;5.250;2022-12-28T04:31:43;5.60;99.90
16289;DHT22;26089;43.538;5.250;2022-12-28T04:34:10;6.40;99.90
16289;DHT22;26089;43.538;5.250;2022-12-28T04:36:37;5.30;99.90
16289;DHT22;26089;43.538;5.250;2022-12-28T04:39:05;5.70;99.90
16289;DHT22;26089;43.538;5.250;2022-12-28T04:41:32;5.70;99.90
16289;DHT22;26089;43.538;5.250;2022-12-28T04:44:00;6.50;99.90
16289;DHT22;26089;43.538;5.250;2022-12-28T04:46:27;5.70;99.90
16289;DHT22;26089;43.538;5.250;2022-12-28T04:48:54;5.70;99.90
16289;DHT22;26089;43.538;5.250;2022-12-28T04:51:23;5.50;99.90
16289;DHT22;26089;43.538;5.250;2022-12-28T04:53:50;5.50;99.90
16289;DHT22;26089;43.538;5.250;2022-12-28T04:56:19;5.50;99.90
16289;DHT22;26089;43.538;5.250;2022-12-28T04:58:47;6.30;99.90
16289;DHT22;26089;43.538;5.250;2022-12-28T05:01:18;5.50;99.90
16289;DHT22;26089;43.538;5.250;2022-12-28T05:03:46;5.60;99.90
16289;DHT22;26089;43.538;5.250;2022-12-28T05:06:15;5.60;99.90
16289;DHT22;26089;43.538;5.250;2022-12-28T05:08:43;5.50;99.90
16289;DHT22;26089;43.538;5.250;2022-12-28T05:11:12;5.50;99.90
16289;DHT22;26089;43.538;5.250;2022-12-28T05:13:40;5.00;99.90
16289;DHT22;26089;43.538;5.250;2022-12-28T05:16:08;5.50;99.90
16289;DHT22;26089;43.538;5.250;2022-12-28T05:18:37;5.50;99.90
16289;DHT22;26089;43.538;5.250;2022-12-28T05:21:06;5.50;99.90
16289;DHT22;26089;43.538;5.250;2022-12-28T05:23:35;5.10;99.90
16289;DHT22;26089;43.538;5.250;2022-12-28T05:26:03;5.40;99.90
16289;DHT22;26089;43.538;5.250;2022-12-28T05:28:30;5.90;99.90
16289;DHT22;26089;43.538;5.250;2022-12-28T05:30:58;5.30;99.90
16289;DHT22;26089;43.538;5.250;2022-12-28T05:33:27;5.40;99.90
16289;DHT22;26089;43.538;5.250;2022-12-28T05:35:56;5.20;99.90
16289;DHT22;26089;43.538;5.250;2022-12-28T05:38:23;5.40;99.90
16289;DHT22;26089;43.538;5.250;2022-12-28T05:40:50;5.50;99.90
16289;DHT22;26089;43.538;5.250;2022-12-28T05:43:17;5.50;99.90
16289;DHT22;26089;43.538;5.250;2022-12-28T05:45:44;5.50;99.90
16289;DHT22;26089;43.538;5.250;2022-12-28T05:48:11;5.60;99.90
16289;DHT22;26089;43.538;5.250;2022-12-28T05:50:38;5.70;99.90
16289;DHT22;26089;43.538;5.250;2022-12-28T05:53:07;5.60;99.90
16289;DHT22;26089;43.538;5.250;2022-12-28T05:55:34;5.70;99.90
16289;DHT22;26089;43.538;5.250;2022-12-28T05:58:01;5.70;99.90
16289;DHT22;26089;43.538;5.250;2022-12-28T06:00:28;5.70;99.90
16289;DHT22;26089;43.538;5.250;2022-12-28T06:02:55;5.60;99.90
16289;DHT22;26089;43.538;5.250;2022-12-28T06:05:22;5.60;99.90
16289;DHT22;26089;43.538;5.250;2022-12-28T06:07:50;5.60;99.90
16289;DHT22;26089;43.538;5.250;2022-12-28T06:10:19;5.70;99.90
16289;DHT22;26089;43.538;5.250;2022-12-28T06:12:46;5.50;99.90
16289;DHT22;26089;43.538;5.250;2022-12-28T06:15:13;5.60;99.90
16289;DHT22;26089;43.538;5.250;2022-12-28T06:17:40;5.50;99.90
16289;DHT22;26089;43.538;5.250;2022-12-28T06:20:08;5.50;99.90
16289;DHT22;26089;43.538;5.250;2022-12-28T06:22:35;5.50;99.90
16289;DHT22;26089;43.538;5.250;2022-12-28T06:25:02;5.50;99.90
16289;DHT22;26089;43.538;5.250;2022-12-28T06:27:31;5.50;99.90
16289;DHT22;26089;43.538;5.250;2022-12-28T06:29:58;5.60;99.90
16289;DHT22;26089;43.538;5.250;2022-12-28T06:32:25;5.60;99.90
16289;DHT22;26089;43.538;5.250;2022-12-28T06:34:52;5.60;99.90
16289;DHT22;26089;43.538;5.250;2022-12-28T06:37:19;5.60;99.90
16289;DHT22;26089;43.538;5.250;2022-12-28T06:39:46;6.40;99.90
16289;DHT22;26089;43.538;5.250;2022-12-28T06:42:12;5.20;99.90
16289;DHT22;26089;43.538;5.250;2022-12-28T06:44:41;5.60;99.90
16289;DHT22;26089;43.538;5.250;2022-12-28T06:47:08;5.50;99.90
16289;DHT22;26089;43.538;5.250;2022-12-28T06:49:35;5.60;99.90
16289;DHT22;26089;43.538;5.250;2022-12-28T06:52:02;5.70;99.90
16289;DHT22;26089;43.538;5.250;2022-12-28T06:54:29;5.70;99.90
16289;DHT22;26089;43.538;5.250;2022-12-28T06:56:56;5.80;99.90
16289;DHT22;26089;43.538;5.250;2022-12-28T06:59:23;5.70;99.90
16289;DHT22;26089;43.538;5.250;2022-12-28T07:01:52;5.70;99.90
16289;DHT22;26089;43.538;5.250;2022-12-28T07:04:19;5.70;99.90
16289;DHT22;26089;43.538;5.250;2022-12-28T07:06:46;5.70;99.90
16289;DHT22;26089;43.538;5.250;2022-12-28T07:09:14;5.80;99.90
16289;DHT22;26089;43.538;5.250;2022-12-28T07:11:42;5.80;99.90
16289;DHT22;26089;43.538;5.250;2022-12-28T07:14:09;5.80;99.90
16289;DHT22;26089;43.538;5.250;2022-12-28T07:16:36;7.00;99.90
16289;DHT22;26089;43.538;5.250;2022-12-28T07:19:05;5.70;99.90
16289;DHT22;26089;43.538;5.250;2022-12-28T07:21:33;5.70;99.90
16289;DHT22;26089;43.538;5.250;2022-12-28T07:24:01;5.80;99.90
16289;DHT22;26089;43.538;5.250;2022-12-28T07:26:29;5.80;99.90
16289;DHT22;26089;43.538;5.250;2022-12-28T07:28:58;5.80;99.90
16289;DHT22;26089;43.538;5.250;2022-12-28T07:31:26;5.70;99.90
16289;DHT22;26089;43.538;5.250;2022-12-28T07:33:55;6.50;99.90
16289;DHT22;26089;43.538;5.250;2022-12-28T07:36:24;5.90;99.90
16289;DHT22;26089;43.538;5.250;2022-12-28T07:38:52;6.10;99.90
16289;DHT22;26089;43.538;5.250;2022-12-28T07:41:21;5.90;99.90
16289;DHT22;26089;43.538;5.250;2022-12-28T07:43:49;5.80;99.90
16289;DHT22;26089;43.538;5.250;2022-12-28T07:46:18;5.90;99.90
16289;DHT22;26089;43.538;5.250;2022-12-28T07:48:46;5.90;99.90
16289;DHT22;26089;43.538;5.250;2022-12-28T07:51:15;6.20;99.90
16289;DHT22;26089;43.538;5.250;2022-12-28T07:53:45;6.70;99.90
16289;DHT22;26089;43.538;5.250;2022-12-28T07:56:13;6.30;99.90
16289;DHT22;26089;43.538;5.250;2022-12-28T07:58:41;6.40;99.90
16289;DHT22;26089;43.538;5.250;2022-12-28T08:01:13;6.50;99.90
16289;DHT22;26089;43.538;5.250;2022-12-28T08:03:41;6.60;99.90
16289;DHT22;26089;43.538;5.250;2022-12-28T08:06:10;6.60;99.90
16289;DHT22;26089;43.538;5.250;2022-12-28T08:08:39;6.70;99.90
16289;DHT22;26089;43.538;5.250;2022-12-28T08:11:09;6.70;99.90
16289;DHT22;26089;43.538;5.250;2022-12-28T08:13:38;6.90;99.90
16289;DHT22;26089;43.538;5.250;2022-12-28T08:16:06;6.90;99.90
16289;DHT22;26089;43.538;5.250;2022-12-28T08:18:33;6.90;99.90
16289;DHT22;26089;43.538;5.250;2022-12-28T08:21:02;7.10;99.90
16289;DHT22;26089;43.538;5.250;2022-12-28T08:23:30;7.20;99.90
16289;DHT22;26089;43.538;5.250;2022-12-28T08:26:04;7.50;99.90
16289;DHT22;26089;43.538;5.250;2022-12-28T08:28:33;7.40;99.90
16289;DHT22;26089;43.538;5.250;2022-12-28T08:31:04;7.50;99.90
16289;DHT22;26089;43.538;5.250;2022-12-28T08:33:32;7.60;99.90
16289;DHT22;26089;43.538;5.250;2022-12-28T08:35:59;7.90;99.90
16289;DHT22;26089;43.538;5.250;2022-12-28T08:38:26;7.80;99.90
16289;DHT22;26089;43.538;5.250;2022-12-28T08:40:57;7.90;99.90
16289;DHT22;26089;43.538;5.250;2022-12-28T08:43:25;7.90;99.90
16289;DHT22;26089;43.538;5.250;2022-12-28T08:45:57;7.90;99.90
16289;DHT22;26089;43.538;5.250;2022-12-28T08:48:25;8.20;99.90
16289;DHT22;26089;43.538;5.250;2022-12-28T08:50:52;8.30;99.90
16289;DHT22;26089;43.538;5.250;2022-12-28T08:53:20;8.20;99.90
16289;DHT22;26089;43.538;5.250;2022-12-28T08:55:49;8.10;99.90
16289;DHT22;26089;43.538;5.250;2022-12-28T08:58:16;8.60;99.90
16289;DHT22;26089;43.538;5.250;2022-12-28T09:00:43;8.60;99.90
16289;DHT22;26089;43.538;5.250;2022-12-28T09:03:11;8.70;99.90
16289;DHT22;26089;43.538;5.250;2022-12-28T09:05:38;8.80;99.90
16289;DHT22;26089;43.538;5.250;2022-12-28T09:08:05;8.80;99.90
16289;DHT22;26089;43.538;5.250;2022-12-28T09:10:32;8.80;99.90
16289;DHT22;26089;43.538;5.250;2022-12-28T09:12:59;9.00;99.90
16289;DHT22;26089;43.538;5.250;2022-12-28T09:15:26;9.10;99.90
16289;DHT22;26089;43.538;5.250;2022-12-28T09:17:53;9.70;99.90
16289;DHT22;26089;43.538;5.250;2022-12-28T09:20:22;9.30;99.90
16289;DHT22;26089;43.538;5.250;2022-12-28T09:22:49;9.40;99.90
16289;DHT22;26089;43.538;5.250;2022-12-28T09:25:16;9.50;99.90
16289;DHT22;26089;43.538;5.250;2022-12-28T09:27:46;9.60;99.90
16289;DHT22;26089;43.538;5.250;2022-12-28T09:30:13;9.60;99.90
16289;DHT22;26089;43.538;5.250;2022-12-28T09:32:40;9.70;99.90
16289;DHT22;26089;43.538;5.250;2022-12-28T09:35:07;9.80;99.90
16289;DHT22;26089;43.538;5.250;2022-12-28T09:37:35;9.90;99.90
16289;DHT22;26089;43.538;5.250;2022-12-28T09:40:03;10.00;99.90
16289;DHT22;26089;43.538;5.250;2022-12-28T09:42:41;10.10;99.90
16289;DHT22;26089;43.538;5.250;2022-12-28T09:45:10;10.20;99.90
16289;DHT22;26089;43.538;5.250;2022-12-28T09:47:39;10.30;99.90
16289;DHT22;26089;43.538;5.250;2022-12-28T09:50:28;10.40;99.90
16289;DHT22;26089;43.538;5.250;2022-12-28T09:53:25;10.40;99.90
16289;DHT22;26089;43.538;5.250;2022-12-28T09:55:59;10.60;99.90
16289;DHT22;26089;43.538;5.250;2022-12-28T09:58:28;10.60;99.90
16289;DHT22;26089;43.538;5.250;2022-12-28T10:00:58;10.60;99.90
16289;DHT22;26089;43.538;5.250;2022-12-28T10:03:30;10.70;99.90
16289;DHT22;26089;43.538;5.250;2022-12-28T10:05:58;10.90;99.90
16289;DHT22;26089;43.538;5.250;2022-12-28T10:08:27;10.90;99.90
16289;DHT22;26089;43.538;5.250;2022-12-28T10:10:58;11.00;99.90
16289;DHT22;26089;43.538;5.250;2022-12-28T10:13:31;11.10;99.90
16289;DHT22;26089;43.538;5.250;2022-12-28T10:15:59;11.20;99.90
16289;DHT22;26089;43.538;5.250;2022-12-28T10:18:27;11.40;99.90
16289;DHT22;26089;43.538;5.250;2022-12-28T10:20:55;11.40;99.90
16289;DHT22;26089;43.538;5.250;2022-12-28T10:23:24;11.50;99.90
16289;DHT22;26089;43.538;5.250;2022-12-28T10:25:55;11.60;99.90
16289;DHT22;26089;43.538;5.250;2022-12-28T10:28:26;11.70;99.90
16289;DHT22;26089;43.538;5.250;2022-12-28T10:31:03;11.70;99.90
16289;DHT22;26089;43.538;5.250;2022-12-28T10:33:31;11.80;99.90
16289;DHT22;26089;43.538;5.250;2022-12-28T10:35:58;11.90;99.90
16289;DHT22;26089;43.538;5.250;2022-12-28T10:38:27;12.00;99.90
16289;DHT22;26089;43.538;5.250;2022-12-28T10:40:59;12.10;99.90
16289;DHT22;26089;43.538;5.250;2022-12-28T10:43:28;12.20;99.90
16289;DHT22;26089;43.538;5.250;2022-12-28T10:45:57;12.30;99.90
16289;DHT22;26089;43.538;5.250;2022-12-28T10:48:28;12.40;99.90
16289;DHT22;26089;43.538;5.250;2022-12-28T10:51:00;12.50;99.90
16289;DHT22;26089;43.538;5.250;2022-12-28T10:53:41;12.60;99.90
16289;DHT22;26089;43.538;5.250;2022-12-28T10:56:20;12.70;99.90
16289;DHT22;26089;43.538;5.250;2022-12-28T10:58:48;12.80;99.90
16289;DHT22;26089;43.538;5.250;2022-12-28T11:01:18;12.90;99.90
16289;DHT22;26089;43.538;5.250;2022-12-28T11:03:57;13.10;99.90
16289;DHT22;26089;43.538;5.250;2022-12-28T11:06:27;13.20;99.90
16289;DHT22;26089;43.538;5.250;2022-12-28T11:09:03;13.20;99.90
16289;DHT22;26089;43.538;5.250;2022-12-28T11:11:33;13.30;99.90
16289;DHT22;26089;43.538;5.250;2022-12-28T11:14:03;13.40;99.90
16289;DHT22;26089;43.538;5.250;2022-12-28T11:16:36;13.50;99.90
16289;DHT22;26089;43.538;5.250;2022-12-28T11:19:03;13.60;99.90
16289;DHT22;26089;43.538;5.250;2022-12-28T11:21:31;13.70;99.90
16289;DHT22;26089;43.538;5.250;2022-12-28T11:23:59;13.80;99.90
16289;DHT22;26089;43.538;5.250;2022-12-28T11:26:27;13.80;99.90
16289;DHT22;26089;43.538;5.250;2022-12-28T11:28:56;13.90;99.90
16289;DHT22;26089;43.538;5.250;2022-12-28T11:31:26;14.00;99.90
16289;DHT22;26089;43.538;5.250;2022-12-28T11:33:57;14.30;99.90
16289;DHT22;26089;43.538;5.250;2022-12-28T11:36:27;14.70;99.90
16289;DHT22;26089;43.538;5.250;2022-12-28T11:38:55;15.40;99.90
16289;DHT22;26089;43.538;5.250;2022-12-28T11:41:41;16.20;99.90
16289;DHT22;26089;43.538;5.250;2022-12-28T11:44:21;16.90;99.90
16289;DHT22;26089;43.538;5.250;2022-12-28T11:47:04;17.50;99.90
16289;DHT22;26089;43.538;5.250;2022-12-28T11:49:33;18.00;99.90
16289;DHT22;26089;43.538;5.250;2022-12-28T11:55:34;18.40;99.90
16289;DHT22;26089;43.538;5.250;2022-12-28T12:01:45;18.50;99.90
16289;DHT22;26089;43.538;5.250;2022-12-28T12:04:35;19.00;99.90
16289;DHT22;26089;43.538;5.250;2022-12-28T12:07:21;19.00;99.90
16289;DHT22;26089;43.538;5.250;2022-12-28T12:13:31;19.10;99.90
16289;DHT22;26089;43.538;5.250;2022-12-28T12:15:50;19.10;99.90
16289;DHT22;26089;43.538;5.250;2022-12-28T12:18:21;19.60;99.90
16289;DHT22;26089;43.538;5.250;2022-12-28T12:20:56;19.80;99.90
16289;DHT22;26089;43.538;5.250;2022-12-28T12:23:37;19.80;99.90
16289;DHT22;26089;43.538;5.250;2022-12-28T12:26:17;19.70;99.90
16289;DHT22;26089;43.538;5.250;2022-12-28T12:28:47;19.80;99.90
16289;DHT22;26089;43.538;5.250;2022-12-28T12:31:23;19.20;99.90
16289;DHT22;26089;43.538;5.250;2022-12-28T12:33:57;19.50;99.90
16289;DHT22;26089;43.538;5.250;2022-12-28T12:36:49;19.90;99.90
16289;DHT22;26089;43.538;5.250;2022-12-28T12:39:34;20.10;99.90
16289;DHT22;26089;43.538;5.250;2022-12-28T12:42:13;20.10;99.90
16289;DHT22;26089;43.538;5.250;2022-12-28T12:44:49;20.10;99.90
16289;DHT22;26089;43.538;5.250;2022-12-28T12:47:52;19.60;99.90
16289;DHT22;26089;43.538;5.250;2022-12-28T12:50:41;19.40;99.90
16289;DHT22;26089;43.538;5.250;2022-12-28T12:53:24;19.60;99.90
16289;DHT22;26089;43.538;5.250;2022-12-28T12:56:00;19.60;99.90
16289;DHT22;26089;43.538;5.250;2022-12-28T12:58:41;19.50;99.90
16289;DHT22;26089;43.538;5.250;2022-12-28T13:01:26;19.50;99.90
16289;DHT22;26089;43.538;5.250;2022-12-28T13:03:57;19.90;99.90
16289;DHT22;26089;43.538;5.250;2022-12-28T13:06:29;20.00;99.90
16289;DHT22;26089;43.538;5.250;2022-12-28T13:08:58;20.30;99.90
16289;DHT22;26089;43.538;5.250;2022-12-28T13:11:28;20.70;99.90
16289;DHT22;26089;43.538;5.250;2022-12-28T13:13:55;20.90;99.90
16289;DHT22;26089;43.538;5.250;2022-12-28T13:16:24;21.20;99.90
16289;DHT22;26089;43.538;5.250;2022-12-28T13:18:54;21.10;99.90
16289;DHT22;26089;43.538;5.250;2022-12-28T13:21:23;21.30;99.90
16289;DHT22;26089;43.538;5.250;2022-12-28T13:23:52;21.00;99.90
16289;DHT22;26089;43.538;5.250;2022-12-28T13:26:24;20.10;99.90
16289;DHT22;26089;43.538;5.250;2022-12-28T13:28:56;20.10;99.90
16289;DHT22;26089;43.538;5.250;2022-12-28T13:31:28;20.10;99.90
16289;DHT22;26089;43.538;5.250;2022-12-28T13:33:58;20.20;99.90
16289;DHT22;26089;43.538;5.250;2022-12-28T13:36:25;20.30;99.90
16289;DHT22;26089;43.538;5.250;2022-12-28T13:39:09;20.30;99.90
16289;DHT22;26089;43.538;5.250;2022-12-28T13:41:37;20.30;99.90
16289;DHT22;26089;43.538;5.250;2022-12-28T13:44:33;20.30;99.90
16289;DHT22;26089;43.538;5.250;2022-12-28T13:47:08;20.00;99.90
16289;DHT22;26089;43.538;5.250;2022-12-28T13:49:39;20.10;99.90
16289;DHT22;26089;43.538;5.250;2022-12-28T13:52:11;19.80;99.90
16289;DHT22;26089;43.538;5.250;2022-12-28T13:54:44;19.80;99.90
16289;DHT22;26089;43.538;5.250;2022-12-28T13:57:14;20.00;99.90
16289;DHT22;26089;43.538;5.250;2022-12-28T13:59:43;19.80;99.90
16289;DHT22;26089;43.538;5.250;2022-12-28T14:02:14;19.50;99.90
16289;DHT22;26089;43.538;5.250;2022-12-28T14:04:43;19.00;99.90
16289;DHT22;26089;43.538;5.250;2022-12-28T14:07:11;18.80;99.90
16289;DHT22;26089;43.538;5.250;2022-12-28T14:09:42;18.60;99.90
16289;DHT22;26089;43.538;5.250;2022-12-28T14:12:11;18.50;99.90
16289;DHT22;26089;43.538;5.250;2022-12-28T14:14:39;18.40;99.90
16289;DHT22;26089;43.538;5.250;2022-12-28T14:17:06;18.00;99.90
16289;DHT22;26089;43.538;5.250;2022-12-28T14:19:34;17.60;99.90
16289;DHT22;26089;43.538;5.250;2022-12-28T14:22:02;17.60;99.90
16289;DHT22;26089;43.538;5.250;2022-12-28T14:24:29;17.50;99.90
16289;DHT22;26089;43.538;5.250;2022-12-28T14:26:57;17.50;99.90
16289;DHT22;26089;43.538;5.250;2022-12-28T14:29:27;17.50;99.90
16289;DHT22;26089;43.538;5.250;2022-12-28T14:31:56;17.30;99.90
16289;DHT22;26089;43.538;5.250;2022-12-28T14:34:27;17.10;99.90
16289;DHT22;26089;43.538;5.250;2022-12-28T14:36:56;16.90;99.90
16289;DHT22;26089;43.538;5.250;2022-12-28T14:39:27;16.80;99.90
16289;DHT22;26089;43.538;5.250;2022-12-28T14:41:57;16.70;99.90
16289;DHT22;26089;43.538;5.250;2022-12-28T14:44:28;16.50;99.90
16289;DHT22;26089;43.538;5.250;2022-12-28T14:46:56;16.20;99.90
16289;DHT22;26089;43.538;5.250;2022-12-28T14:49:31;16.10;99.90
16289;DHT22;26089;43.538;5.250;2022-12-28T14:52:34;16.00;99.90
16289;DHT22;26089;43.538;5.250;2022-12-28T14:55:32;15.80;99.90
16289;DHT22;26089;43.538;5.250;2022-12-28T14:58:05;15.70;99.90
16289;DHT22;26089;43.538;5.250;2022-12-28T15:00:35;15.60;99.90
16289;DHT22;26089;43.538;5.250;2022-12-28T15:03:15;15.60;99.90
16289;DHT22;26089;43.538;5.250;2022-12-28T15:05:44;15.40;99.90
16289;DHT22;26089;43.538;5.250;2022-12-28T15:08:11;15.30;99.90
16289;DHT22;26089;43.538;5.250;2022-12-28T15:10:41;15.20;99.90
16289;DHT22;26089;43.538;5.250;2022-12-28T15:13:10;15.00;99.90
16289;DHT22;26089;43.538;5.250;2022-12-28T15:15:37;14.90;99.90
16289;DHT22;26089;43.538;5.250;2022-12-28T15:18:04;14.70;99.90
16289;DHT22;26089;43.538;5.250;2022-12-28T15:20:31;14.50;99.90
16289;DHT22;26089;43.538;5.250;2022-12-28T15:22:58;14.40;99.90
16289;DHT22;26089;43.538;5.250;2022-12-28T15:25:25;14.30;99.90
16289;DHT22;26089;43.538;5.250;2022-12-28T15:27:52;14.20;99.90
16289;DHT22;26089;43.538;5.250;2022-12-28T15:30:21;14.10;99.90
16289;DHT22;26089;43.538;5.250;2022-12-28T15:32:48;14.00;99.90
16289;DHT22;26089;43.538;5.250;2022-12-28T15:35:15;13.90;99.90
16289;DHT22;26089;43.538;5.250;2022-12-28T15:37:42;13.90;99.90
16289;DHT22;26089;43.538;5.250;2022-12-28T15:40:10;13.70;99.90
16289;DHT22;26089;43.538;5.250;2022-12-28T15:42:37;13.70;99.90
16289;DHT22;26089;43.538;5.250;2022-12-28T15:45:05;13.50;99.90
16289;DHT22;26089;43.538;5.250;2022-12-28T15:47:35;13.50;99.90
16289;DHT22;26089;43.538;5.250;2022-12-28T15:50:02;13.50;99.90
16289;DHT22;26089;43.538;5.250;2022-12-28T15:52:29;13.50;99.90
16289;DHT22;26089;43.538;5.250;2022-12-28T15:54:57;13.50;99.90
16289;DHT22;26089;43.538;5.250;2022-12-28T15:57:25;13.50;99.90
16289;DHT22;26089;43.538;5.250;2022-12-28T15:59:52;13.40;99.90
16289;DHT22;26089;43.538;5.250;2022-12-28T16:02:20;13.40;99.90
16289;DHT22;26089;43.538;5.250;2022-12-28T16:04:48;13.40;99.90
16289;DHT22;26089;43.538;5.250;2022-12-28T16:07:15;13.30;99.90
16289;DHT22;26089;43.538;5.250;2022-12-28T16:09:44;13.30;99.90
16289;DHT22;26089;43.538;5.250;2022-12-28T16:12:11;13.30;99.90
16289;DHT22;26089;43.538;5.250;2022-12-28T16:14:43;13.20;99.90